sensor_id;sensor_type;location;lat;lon;timestamp;temperature;humidity
30288;DHT22;17103;48.316;11.558;2023-04-03T00:01:14;14.00;37.50
30288;DHT22;17103;48.316;11.558;2023-04-03T00:03:40;14.00;37.70
30288;DHT22;17103;48.316;11.558;2023-04-03T00:06:07;14.00;37.30
30288;DHT22;17103;48.316;11.558;2023-04-03T00:08:34;14.00;37.30
30288;DHT22;17103;48.316;11.558;2023-04-03T00:11:01;13.90;37.30
30288;DHT22;17103;48.316;11.558;2023-04-03T00:13:28;14.00;37.40
30288;DHT22;17103;48.316;11.558;2023-04-03T00:15:54;14.00;37.90
30288;DHT22;17103;48.316;11.558;2023-04-03T00:18:19;13.90;37.30
30288;DHT22;17103;48.316;11.558;2023-04-03T00:20:45;14.00;37.30
30288;DHT22;17103;48.316;11.558;2023-04-03T00:23:11;14.00;37.30
30288;DHT22;17103;48.316;11.558;2023-04-03T00:25:36;14.00;37.30
30288;DHT22;17103;48.316;11.558;2023-04-03T00:28:03;14.00;37.30
30288;DHT22;17103;48.316;11.558;2023-04-03T00:30:30;14.00;37.30
30288;DHT22;17103;48.316;11.558;2023-04-03T00:32:55;14.00;37.30
30288;DHT22;17103;48.316;11.558;2023-04-03T00:35:22;14.00;37.30
30288;DHT22;17103;48.316;11.558;2023-04-03T00:37:50;14.10;37.20
30288;DHT22;17103;48.316;11.558;2023-04-03T00:40:16;14.10;37.20
30288;DHT22;17103;48.316;11.558;2023-04-03T00:42:43;14.10;37.10
30288;DHT22;17103;48.316;11.558;2023-04-03T00:47:41;14.10;37.00
30288;DHT22;17103;48.316;11.558;2023-04-03T00:50:07;14.10;37.00
30288;DHT22;17103;48.316;11.558;2023-04-03T00:52:33;14.10;37.00
30288;DHT22;17103;48.316;11.558;2023-04-03T00:55:02;14.20;37.00
30288;DHT22;17103;48.316;11.558;2023-04-03T00:57:32;14.20;36.90
30288;DHT22;17103;48.316;11.558;2023-04-03T01:00:03;14.10;36.70
30288;DHT22;17103;48.316;11.558;2023-04-03T01:02:29;14.30;36.80
30288;DHT22;17103;48.316;11.558;2023-04-03T01:04:55;14.20;36.80
30288;DHT22;17103;48.316;11.558;2023-04-03T01:07:24;14.20;36.80
30288;DHT22;17103;48.316;11.558;2023-04-03T01:09:55;14.30;36.80
30288;DHT22;17103;48.316;11.558;2023-04-03T01:12:32;14.20;36.70
30288;DHT22;17103;48.316;11.558;2023-04-03T01:15:00;14.20;36.40
30288;DHT22;17103;48.316;11.558;2023-04-03T01:25:50;14.20;36.50
30288;DHT22;17103;48.316;11.558;2023-04-03T01:28:23;14.30;36.30
30288;DHT22;17103;48.316;11.558;2023-04-03T01:33:19;14.30;36.90
30288;DHT22;17103;48.316;11.558;2023-04-03T01:35:45;14.30;36.50
30288;DHT22;17103;48.316;11.558;2023-04-03T01:38:11;14.40;36.50
30288;DHT22;17103;48.316;11.558;2023-04-03T01:40:37;14.30;36.30
30288;DHT22;17103;48.316;11.558;2023-04-03T01:43:03;14.40;36.30
30288;DHT22;17103;48.316;11.558;2023-04-03T01:45:28;14.40;36.30
30288;DHT22;17103;48.316;11.558;2023-04-03T01:47:54;14.40;36.20
30288;DHT22;17103;48.316;11.558;2023-04-03T01:50:20;14.40;36.10
30288;DHT22;17103;48.316;11.558;2023-04-03T01:52:46;14.40;36.00
30288;DHT22;17103;48.316;11.558;2023-04-03T01:55:11;14.40;36.00
30288;DHT22;17103;48.316;11.558;2023-04-03T01:57:37;14.30;35.90
30288;DHT22;17103;48.316;11.558;2023-04-03T02:00:03;14.40;36.00
30288;DHT22;17103;48.316;11.558;2023-04-03T02:02:30;14.40;36.00
30288;DHT22;17103;48.316;11.558;2023-04-03T02:04:56;14.50;35.90
30288;DHT22;17103;48.316;11.558;2023-04-03T02:07:21;14.40;35.90
30288;DHT22;17103;48.316;11.558;2023-04-03T02:09:47;14.50;35.80
30288;DHT22;17103;48.316;11.558;2023-04-03T02:12:13;14.40;35.80
30288;DHT22;17103;48.316;11.558;2023-04-03T02:14:38;14.50;35.80
30288;DHT22;17103;48.316;11.558;2023-04-03T02:17:04;14.40;35.70
30288;DHT22;17103;48.316;11.558;2023-04-03T02:19:36;14.40;35.70
30288;DHT22;17103;48.316;11.558;2023-04-03T02:22:05;14.40;35.70
30288;DHT22;17103;48.316;11.558;2023-04-03T02:24:31;14.40;35.50
30288;DHT22;17103;48.316;11.558;2023-04-03T02:26:57;14.30;35.50
30288;DHT22;17103;48.316;11.558;2023-04-03T02:29:23;14.30;35.50
30288;DHT22;17103;48.316;11.558;2023-04-03T02:31:49;14.30;35.50
30288;DHT22;17103;48.316;11.558;2023-04-03T02:34:15;14.40;35.50
30288;DHT22;17103;48.316;11.558;2023-04-03T02:36:40;14.30;35.50
30288;DHT22;17103;48.316;11.558;2023-04-03T02:39:06;14.30;35.40
30288;DHT22;17103;48.316;11.558;2023-04-03T02:41:31;14.40;35.60
30288;DHT22;17103;48.316;11.558;2023-04-03T02:44:05;14.30;35.40
30288;DHT22;17103;48.316;11.558;2023-04-03T02:46:31;14.30;35.30
30288;DHT22;17103;48.316;11.558;2023-04-03T02:48:56;14.30;35.30
30288;DHT22;17103;48.316;11.558;2023-04-03T02:51:22;14.30;35.30
30288;DHT22;17103;48.316;11.558;2023-04-03T02:53:49;14.30;35.30
30288;DHT22;17103;48.316;11.558;2023-04-03T02:56:15;14.30;35.20
30288;DHT22;17103;48.316;11.558;2023-04-03T02:58:42;14.40;35.40
30288;DHT22;17103;48.316;11.558;2023-04-03T03:01:08;14.30;35.30
30288;DHT22;17103;48.316;11.558;2023-04-03T03:03:35;14.30;35.30
30288;DHT22;17103;48.316;11.558;2023-04-03T03:06:06;14.30;35.40
30288;DHT22;17103;48.316;11.558;2023-04-03T03:08:32;14.30;35.30
30288;DHT22;17103;48.316;11.558;2023-04-03T03:10:58;14.30;35.40
30288;DHT22;17103;48.316;11.558;2023-04-03T03:13:24;14.40;35.50
30288;DHT22;17103;48.316;11.558;2023-04-03T03:15:50;14.30;35.80
30288;DHT22;17103;48.316;11.558;2023-04-03T03:18:15;14.30;35.40
30288;DHT22;17103;48.316;11.558;2023-04-03T03:20:41;14.30;35.30
30288;DHT22;17103;48.316;11.558;2023-04-03T03:23:07;14.40;35.40
30288;DHT22;17103;48.316;11.558;2023-04-03T03:25:33;14.40;35.40
30288;DHT22;17103;48.316;11.558;2023-04-03T03:27:58;14.40;35.80
30288;DHT22;17103;48.316;11.558;2023-04-03T03:30:24;14.40;35.30
30288;DHT22;17103;48.316;11.558;2023-04-03T03:32:49;14.40;35.20
30288;DHT22;17103;48.316;11.558;2023-04-03T03:35:15;14.40;35.20
30288;DHT22;17103;48.316;11.558;2023-04-03T03:37:41;14.40;35.20
30288;DHT22;17103;48.316;11.558;2023-04-03T03:40:07;14.30;35.20
30288;DHT22;17103;48.316;11.558;2023-04-03T03:42:33;14.40;35.10
30288;DHT22;17103;48.316;11.558;2023-04-03T03:44:58;14.40;35.10
30288;DHT22;17103;48.316;11.558;2023-04-03T03:47:24;14.50;35.10
30288;DHT22;17103;48.316;11.558;2023-04-03T03:49:50;14.40;35.00
30288;DHT22;17103;48.316;11.558;2023-04-03T03:52:16;14.40;35.00
30288;DHT22;17103;48.316;11.558;2023-04-03T03:54:42;14.40;35.10
30288;DHT22;17103;48.316;11.558;2023-04-03T03:57:07;14.40;35.00
30288;DHT22;17103;48.316;11.558;2023-04-03T03:59:34;14.30;35.00
30288;DHT22;17103;48.316;11.558;2023-04-03T04:02:00;14.40;34.90
30288;DHT22;17103;48.316;11.558;2023-04-03T04:04:26;14.40;35.00
30288;DHT22;17103;48.316;11.558;2023-04-03T04:06:51;14.40;35.00
30288;DHT22;17103;48.316;11.558;2023-04-03T04:09:17;14.50;35.10
30288;DHT22;17103;48.316;11.558;2023-04-03T04:11:43;14.40;35.00
30288;DHT22;17103;48.316;11.558;2023-04-03T04:14:10;14.40;35.00
30288;DHT22;17103;48.316;11.558;2023-04-03T04:16:37;14.40;34.90
30288;DHT22;17103;48.316;11.558;2023-04-03T04:19:03;14.40;35.00
30288;DHT22;17103;48.316;11.558;2023-04-03T04:21:29;14.50;34.90
30288;DHT22;17103;48.316;11.558;2023-04-03T04:23:54;14.50;34.90
30288;DHT22;17103;48.316;11.558;2023-04-03T04:26:20;14.40;34.80
30288;DHT22;17103;48.316;11.558;2023-04-03T04:28:46;14.50;34.90
30288;DHT22;17103;48.316;11.558;2023-04-03T04:31:11;14.50;34.70
30288;DHT22;17103;48.316;11.558;2023-04-03T04:33:37;14.50;34.70
30288;DHT22;17103;48.316;11.558;2023-04-03T04:36:03;14.50;34.70
30288;DHT22;17103;48.316;11.558;2023-04-03T04:38:28;14.50;34.70
30288;DHT22;17103;48.316;11.558;2023-04-03T04:40:54;14.50;34.70
30288;DHT22;17103;48.316;11.558;2023-04-03T04:43:19;14.60;34.70
30288;DHT22;17103;48.316;11.558;2023-04-03T04:45:45;14.60;34.60
30288;DHT22;17103;48.316;11.558;2023-04-03T04:48:11;14.60;34.60
30288;DHT22;17103;48.316;11.558;2023-04-03T04:50:37;14.60;34.40
30288;DHT22;17103;48.316;11.558;2023-04-03T04:53:02;14.70;34.50
30288;DHT22;17103;48.316;11.558;2023-04-03T04:55:29;14.60;34.40
30288;DHT22;17103;48.316;11.558;2023-04-03T04:57:55;14.70;34.50
30288;DHT22;17103;48.316;11.558;2023-04-03T05:00:21;14.60;34.30
30288;DHT22;17103;48.316;11.558;2023-04-03T05:02:46;14.70;34.30
30288;DHT22;17103;48.316;11.558;2023-04-03T05:05:12;14.70;34.30
30288;DHT22;17103;48.316;11.558;2023-04-03T05:07:38;14.60;34.10
30288;DHT22;17103;48.316;11.558;2023-04-03T05:10:04;14.70;34.10
30288;DHT22;17103;48.316;11.558;2023-04-03T05:12:29;14.60;34.00
30288;DHT22;17103;48.316;11.558;2023-04-03T05:14:55;14.60;34.00
30288;DHT22;17103;48.316;11.558;2023-04-03T05:17:21;14.60;34.10
30288;DHT22;17103;48.316;11.558;2023-04-03T05:19:46;14.60;34.20
30288;DHT22;17103;48.316;11.558;2023-04-03T05:22:12;14.60;34.10
30288;DHT22;17103;48.316;11.558;2023-04-03T05:24:38;14.60;34.10
30288;DHT22;17103;48.316;11.558;2023-04-03T05:27:03;14.60;34.10
30288;DHT22;17103;48.316;11.558;2023-04-03T05:29:29;14.60;34.20
30288;DHT22;17103;48.316;11.558;2023-04-03T05:31:55;14.60;34.20
30288;DHT22;17103;48.316;11.558;2023-04-03T05:34:21;14.60;34.00
30288;DHT22;17103;48.316;11.558;2023-04-03T05:36:47;14.60;34.10
30288;DHT22;17103;48.316;11.558;2023-04-03T05:39:12;14.50;34.00
30288;DHT22;17103;48.316;11.558;2023-04-03T05:41:38;14.60;33.90
30288;DHT22;17103;48.316;11.558;2023-04-03T05:44:04;14.60;33.70
30288;DHT22;17103;48.316;11.558;2023-04-03T05:46:34;14.50;33.30
30288;DHT22;17103;48.316;11.558;2023-04-03T05:49:00;14.40;33.00
30288;DHT22;17103;48.316;11.558;2023-04-03T05:51:33;14.20;32.90
30288;DHT22;17103;48.316;11.558;2023-04-03T05:54:16;14.00;32.70
30288;DHT22;17103;48.316;11.558;2023-04-03T05:56:42;13.80;32.80
30288;DHT22;17103;48.316;11.558;2023-04-03T05:59:09;13.60;32.90
30288;DHT22;17103;48.316;11.558;2023-04-03T06:01:35;13.40;32.90
30288;DHT22;17103;48.316;11.558;2023-04-03T06:04:01;13.20;33.00
30288;DHT22;17103;48.316;11.558;2023-04-03T06:06:52;12.90;33.10
30288;DHT22;17103;48.316;11.558;2023-04-03T06:09:23;12.70;33.20
30288;DHT22;17103;48.316;11.558;2023-04-03T06:11:49;12.50;33.40
30288;DHT22;17103;48.316;11.558;2023-04-03T06:14:15;12.30;33.60
30288;DHT22;17103;48.316;11.558;2023-04-03T06:16:41;12.20;33.80
30288;DHT22;17103;48.316;11.558;2023-04-03T06:19:08;11.90;33.90
30288;DHT22;17103;48.316;11.558;2023-04-03T06:21:34;11.80;34.20
30288;DHT22;17103;48.316;11.558;2023-04-03T06:24:02;11.70;34.40
30288;DHT22;17103;48.316;11.558;2023-04-03T06:26:28;11.60;34.50
30288;DHT22;17103;48.316;11.558;2023-04-03T06:28:54;11.40;34.60
30288;DHT22;17103;48.316;11.558;2023-04-03T06:31:20;11.30;34.70
30288;DHT22;17103;48.316;11.558;2023-04-03T06:33:45;11.20;34.80
30288;DHT22;17103;48.316;11.558;2023-04-03T06:36:11;11.10;35.00
30288;DHT22;17103;48.316;11.558;2023-04-03T06:38:37;11.10;35.20
30288;DHT22;17103;48.316;11.558;2023-04-03T06:41:03;11.00;35.30
30288;DHT22;17103;48.316;11.558;2023-04-03T06:43:29;10.90;35.40
30288;DHT22;17103;48.316;11.558;2023-04-03T06:45:56;11.10;35.70
30288;DHT22;17103;48.316;11.558;2023-04-03T06:48:22;10.70;35.50
30288;DHT22;17103;48.316;11.558;2023-04-03T06:50:48;10.70;35.70
30288;DHT22;17103;48.316;11.558;2023-04-03T06:53:14;10.60;35.80
30288;DHT22;17103;48.316;11.558;2023-04-03T06:55:40;10.80;36.10
30288;DHT22;17103;48.316;11.558;2023-04-03T06:58:07;10.50;36.00
30288;DHT22;17103;48.316;11.558;2023-04-03T07:00:33;10.40;36.10
30288;DHT22;17103;48.316;11.558;2023-04-03T07:02:59;10.40;36.20
30288;DHT22;17103;48.316;11.558;2023-04-03T07:05:25;10.30;36.20
30288;DHT22;17103;48.316;11.558;2023-04-03T07:07:52;10.30;36.40
30288;DHT22;17103;48.316;11.558;2023-04-03T07:10:17;10.20;36.50
30288;DHT22;17103;48.316;11.558;2023-04-03T07:12:43;10.20;36.60
30288;DHT22;17103;48.316;11.558;2023-04-03T07:15:09;10.20;36.70
30288;DHT22;17103;48.316;11.558;2023-04-03T07:17:35;10.20;36.80
30288;DHT22;17103;48.316;11.558;2023-04-03T07:20:02;10.10;36.80
30288;DHT22;17103;48.316;11.558;2023-04-03T07:22:29;10.10;37.10
30288;DHT22;17103;48.316;11.558;2023-04-03T07:24:55;10.10;37.00
30288;DHT22;17103;48.316;11.558;2023-04-03T07:27:20;10.10;37.00
30288;DHT22;17103;48.316;11.558;2023-04-03T07:29:46;10.20;37.10
30288;DHT22;17103;48.316;11.558;2023-04-03T07:32:14;10.10;37.00
30288;DHT22;17103;48.316;11.558;2023-04-03T07:34:40;10.10;37.60
30288;DHT22;17103;48.316;11.558;2023-04-03T07:37:06;10.10;37.00
30288;DHT22;17103;48.316;11.558;2023-04-03T07:39:34;10.10;37.00
30288;DHT22;17103;48.316;11.558;2023-04-03T07:42:00;10.10;37.00
30288;DHT22;17103;48.316;11.558;2023-04-03T07:44:26;10.10;37.10
30288;DHT22;17103;48.316;11.558;2023-04-03T07:46:52;10.10;37.10
30288;DHT22;17103;48.316;11.558;2023-04-03T07:49:17;10.10;37.10
30288;DHT22;17103;48.316;11.558;2023-04-03T07:51:44;10.10;37.20
30288;DHT22;17103;48.316;11.558;2023-04-03T07:54:10;10.40;37.50
30288;DHT22;17103;48.316;11.558;2023-04-03T07:56:36;10.10;37.70
30288;DHT22;17103;48.316;11.558;2023-04-03T07:59:01;10.10;37.20
30288;DHT22;17103;48.316;11.558;2023-04-03T08:01:27;10.10;37.20
30288;DHT22;17103;48.316;11.558;2023-04-03T08:03:53;10.10;37.20
30288;DHT22;17103;48.316;11.558;2023-04-03T08:06:19;10.10;37.30
30288;DHT22;17103;48.316;11.558;2023-04-03T08:08:46;10.30;37.50
30288;DHT22;17103;48.316;11.558;2023-04-03T08:11:13;10.10;37.30
30288;DHT22;17103;48.316;11.558;2023-04-03T08:13:39;10.10;37.30
30288;DHT22;17103;48.316;11.558;2023-04-03T08:16:12;10.10;37.90
30288;DHT22;17103;48.316;11.558;2023-04-03T08:18:39;10.10;37.50
30288;DHT22;17103;48.316;11.558;2023-04-03T08:21:13;10.10;37.60
30288;DHT22;17103;48.316;11.558;2023-04-03T08:23:40;10.20;37.60
30288;DHT22;17103;48.316;11.558;2023-04-03T08:26:15;10.20;37.60
30288;DHT22;17103;48.316;11.558;2023-04-03T08:28:41;10.20;37.60
30288;DHT22;17103;48.316;11.558;2023-04-03T08:31:11;10.20;37.60
30288;DHT22;17103;48.316;11.558;2023-04-03T08:33:38;10.20;37.60
30288;DHT22;17103;48.316;11.558;2023-04-03T08:36:06;10.20;37.60
30288;DHT22;17103;48.316;11.558;2023-04-03T08:38:32;10.30;37.70
30288;DHT22;17103;48.316;11.558;2023-04-03T08:46:14;10.30;37.60
30288;DHT22;17103;48.316;11.558;2023-04-03T08:48:42;10.30;37.60
30288;DHT22;17103;48.316;11.558;2023-04-03T08:51:17;10.40;37.70
30288;DHT22;17103;48.316;11.558;2023-04-03T08:54:06;10.40;37.70
30288;DHT22;17103;48.316;11.558;2023-04-03T08:56:39;10.40;37.70
30288;DHT22;17103;48.316;11.558;2023-04-03T08:59:19;10.40;37.60
30288;DHT22;17103;48.316;11.558;2023-04-03T09:01:51;10.50;37.70
30288;DHT22;17103;48.316;11.558;2023-04-03T09:04:17;10.50;37.70
30288;DHT22;17103;48.316;11.558;2023-04-03T09:06:47;10.80;37.90
30288;DHT22;17103;48.316;11.558;2023-04-03T09:09:31;10.50;37.60
30288;DHT22;17103;48.316;11.558;2023-04-03T09:12:27;10.50;37.60
30288;DHT22;17103;48.316;11.558;2023-04-03T09:17:49;10.60;37.60
30288;DHT22;17103;48.316;11.558;2023-04-03T09:23:32;10.80;37.70
30288;DHT22;17103;48.316;11.558;2023-04-03T09:26:34;10.60;37.30
30288;DHT22;17103;48.316;11.558;2023-04-03T09:29:05;10.60;37.40
30288;DHT22;17103;48.316;11.558;2023-04-03T09:31:43;10.60;37.30
30288;DHT22;17103;48.316;11.558;2023-04-03T09:34:32;10.70;37.40
30288;DHT22;17103;48.316;11.558;2023-04-03T09:37:00;10.70;37.40
30288;DHT22;17103;48.316;11.558;2023-04-03T09:39:48;10.70;37.40
30288;DHT22;17103;48.316;11.558;2023-04-03T09:42:20;10.70;37.30
30288;DHT22;17103;48.316;11.558;2023-04-03T09:44:55;10.70;37.80
30288;DHT22;17103;48.316;11.558;2023-04-03T09:47:28;10.80;37.20
30288;DHT22;17103;48.316;11.558;2023-04-03T09:52:51;10.80;37.20
30288;DHT22;17103;48.316;11.558;2023-04-03T09:55:23;10.80;37.10
30288;DHT22;17103;48.316;11.558;2023-04-03T09:57:59;10.80;37.10
30288;DHT22;17103;48.316;11.558;2023-04-03T10:00:33;10.80;36.90
30288;DHT22;17103;48.316;11.558;2023-04-03T10:03:00;10.80;36.70
30288;DHT22;17103;48.316;11.558;2023-04-03T10:08:23;10.80;36.40
30288;DHT22;17103;48.316;11.558;2023-04-03T10:13:32;10.90;36.10
30288;DHT22;17103;48.316;11.558;2023-04-03T10:16:09;11.10;36.40
30288;DHT22;17103;48.316;11.558;2023-04-03T10:18:44;10.90;36.10
30288;DHT22;17103;48.316;11.558;2023-04-03T10:24:23;10.90;35.70
30288;DHT22;17103;48.316;11.558;2023-04-03T10:32:42;11.00;35.90
30288;DHT22;17103;48.316;11.558;2023-04-03T10:38:14;11.00;35.30
30288;DHT22;17103;48.316;11.558;2023-04-03T10:41:16;11.10;35.60
30288;DHT22;17103;48.316;11.558;2023-04-03T10:46:37;11.10;35.40
30288;DHT22;17103;48.316;11.558;2023-04-03T10:52:23;11.10;35.40
30288;DHT22;17103;48.316;11.558;2023-04-03T10:57:36;11.20;35.50
30288;DHT22;17103;48.316;11.558;2023-04-03T11:00:14;11.20;35.20
30288;DHT22;17103;48.316;11.558;2023-04-03T11:02:51;11.20;35.00
30288;DHT22;17103;48.316;11.558;2023-04-03T11:11:00;11.20;34.60
30288;DHT22;17103;48.316;11.558;2023-04-03T11:13:34;11.20;34.80
30288;DHT22;17103;48.316;11.558;2023-04-03T11:16:04;11.20;34.90
30288;DHT22;17103;48.316;11.558;2023-04-03T11:18:49;11.20;35.10
30288;DHT22;17103;48.316;11.558;2023-04-03T11:24:20;11.30;34.90
30288;DHT22;17103;48.316;11.558;2023-04-03T11:26:49;11.30;35.10
30288;DHT22;17103;48.316;11.558;2023-04-03T11:29:26;11.30;35.00
30288;DHT22;17103;48.316;11.558;2023-04-03T11:32:20;11.30;34.80
30288;DHT22;17103;48.316;11.558;2023-04-03T11:34:57;11.10;34.70
30288;DHT22;17103;48.316;11.558;2023-04-03T11:40:05;11.30;34.80
30288;DHT22;17103;48.316;11.558;2023-04-03T11:42:39;11.40;34.80
30288;DHT22;17103;48.316;11.558;2023-04-03T11:45:26;11.40;34.70
30288;DHT22;17103;48.316;11.558;2023-04-03T11:48:03;11.50;34.70
30288;DHT22;17103;48.316;11.558;2023-04-03T11:50:40;11.60;35.00
30288;DHT22;17103;48.316;11.558;2023-04-03T11:58:18;11.70;34.70
30288;DHT22;17103;48.316;11.558;2023-04-03T12:16:25;12.10;34.20
30288;DHT22;17103;48.316;11.558;2023-04-03T12:21:22;12.30;34.20
30288;DHT22;17103;48.316;11.558;2023-04-03T12:24:25;12.30;33.70
30288;DHT22;17103;48.316;11.558;2023-04-03T12:29:27;12.40;33.80
30288;DHT22;17103;48.316;11.558;2023-04-03T12:48:27;12.90;33.80
30288;DHT22;17103;48.316;11.558;2023-04-03T12:50:54;13.00;34.30
30288;DHT22;17103;48.316;11.558;2023-04-03T12:53:34;13.10;34.60
30288;DHT22;17103;48.316;11.558;2023-04-03T12:58:49;13.30;33.40
30288;DHT22;17103;48.316;11.558;2023-04-03T13:01:22;13.30;33.20
30288;DHT22;17103;48.316;11.558;2023-04-03T13:03:49;13.40;33.10
30288;DHT22;17103;48.316;11.558;2023-04-03T13:06:30;13.50;34.20
30288;DHT22;17103;48.316;11.558;2023-04-03T13:08:59;13.50;33.20
30288;DHT22;17103;48.316;11.558;2023-04-03T13:11:32;13.90;33.40
30288;DHT22;17103;48.316;11.558;2023-04-03T13:14:16;13.80;32.60
30288;DHT22;17103;48.316;11.558;2023-04-03T13:17:03;13.60;31.80
30288;DHT22;17103;48.316;11.558;2023-04-03T13:19:29;13.60;32.00
30288;DHT22;17103;48.316;11.558;2023-04-03T13:22:01;13.60;32.20
30288;DHT22;17103;48.316;11.558;2023-04-03T13:24:30;13.60;31.70
30288;DHT22;17103;48.316;11.558;2023-04-03T13:26:58;13.60;32.70
30288;DHT22;17103;48.316;11.558;2023-04-03T13:29:36;13.60;31.70
30288;DHT22;17103;48.316;11.558;2023-04-03T13:32:04;13.60;30.70
30288;DHT22;17103;48.316;11.558;2023-04-03T13:34:49;13.60;31.20
30288;DHT22;17103;48.316;11.558;2023-04-03T13:37:27;13.60;30.30
30288;DHT22;17103;48.316;11.558;2023-04-03T13:40:19;13.60;30.90
30288;DHT22;17103;48.316;11.558;2023-04-03T13:42:45;13.70;30.70
30288;DHT22;17103;48.316;11.558;2023-04-03T13:45:27;13.60;31.10
30288;DHT22;17103;48.316;11.558;2023-04-03T13:48:18;13.60;30.30
30288;DHT22;17103;48.316;11.558;2023-04-03T13:51:02;13.60;30.10
30288;DHT22;17103;48.316;11.558;2023-04-03T13:53:30;13.70;31.00
30288;DHT22;17103;48.316;11.558;2023-04-03T13:58:31;13.80;31.60
30288;DHT22;17103;48.316;11.558;2023-04-03T14:01:17;13.90;31.40
30288;DHT22;17103;48.316;11.558;2023-04-03T14:03:52;14.10;30.70
30288;DHT22;17103;48.316;11.558;2023-04-03T14:06:20;14.20;31.00
30288;DHT22;17103;48.316;11.558;2023-04-03T14:08:46;14.20;30.70
30288;DHT22;17103;48.316;11.558;2023-04-03T14:11:28;14.20;30.70
30288;DHT22;17103;48.316;11.558;2023-04-03T14:14:09;14.20;30.50
30288;DHT22;17103;48.316;11.558;2023-04-03T14:16:39;14.30;30.60
30288;DHT22;17103;48.316;11.558;2023-04-03T14:19:06;14.30;30.50
30288;DHT22;17103;48.316;11.558;2023-04-03T14:21:33;14.40;30.40
30288;DHT22;17103;48.316;11.558;2023-04-03T14:23:59;14.40;30.40
30288;DHT22;17103;48.316;11.558;2023-04-03T14:26:25;14.50;30.10
30288;DHT22;17103;48.316;11.558;2023-04-03T14:28:54;14.50;30.00
30288;DHT22;17103;48.316;11.558;2023-04-03T14:31:21;14.50;29.60
30288;DHT22;17103;48.316;11.558;2023-04-03T14:33:47;14.60;29.50
30288;DHT22;17103;48.316;11.558;2023-04-03T14:36:21;14.60;29.80
30288;DHT22;17103;48.316;11.558;2023-04-03T14:38:49;14.60;29.40
30288;DHT22;17103;48.316;11.558;2023-04-03T14:41:17;14.60;29.70
30288;DHT22;17103;48.316;11.558;2023-04-03T14:43:44;14.60;29.70
30288;DHT22;17103;48.316;11.558;2023-04-03T14:46:28;14.70;30.10
30288;DHT22;17103;48.316;11.558;2023-04-03T14:48:55;14.70;29.40
30288;DHT22;17103;48.316;11.558;2023-04-03T14:51:20;14.70;29.80
30288;DHT22;17103;48.316;11.558;2023-04-03T14:53:47;14.70;29.90
30288;DHT22;17103;48.316;11.558;2023-04-03T14:56:22;14.80;29.70
30288;DHT22;17103;48.316;11.558;2023-04-03T14:58:49;14.90;29.90
30288;DHT22;17103;48.316;11.558;2023-04-03T15:01:17;14.90;29.60
30288;DHT22;17103;48.316;11.558;2023-04-03T15:03:43;15.00;29.70
30288;DHT22;17103;48.316;11.558;2023-04-03T15:06:12;15.00;29.40
30288;DHT22;17103;48.316;11.558;2023-04-03T15:08:38;15.10;29.40
30288;DHT22;17103;48.316;11.558;2023-04-03T15:11:04;15.10;29.60
30288;DHT22;17103;48.316;11.558;2023-04-03T15:13:30;15.10;29.40
30288;DHT22;17103;48.316;11.558;2023-04-03T15:15:56;15.10;29.20
30288;DHT22;17103;48.316;11.558;2023-04-03T15:18:24;15.20;29.90
30288;DHT22;17103;48.316;11.558;2023-04-03T15:20:52;15.20;29.70
30288;DHT22;17103;48.316;11.558;2023-04-03T15:23:18;15.40;29.90
30288;DHT22;17103;48.316;11.558;2023-04-03T15:25:46;15.30;29.70
30288;DHT22;17103;48.316;11.558;2023-04-03T15:30:53;15.70;30.40
30288;DHT22;17103;48.316;11.558;2023-04-03T15:33:18;15.80;30.80
30288;DHT22;17103;48.316;11.558;2023-04-03T15:35:45;16.00;31.00
30288;DHT22;17103;48.316;11.558;2023-04-03T15:38:12;16.10;31.10
30288;DHT22;17103;48.316;11.558;2023-04-03T15:40:38;16.40;31.20
30288;DHT22;17103;48.316;11.558;2023-04-03T15:43:05;16.80;31.20
30288;DHT22;17103;48.316;11.558;2023-04-03T15:45:32;16.90;30.80
30288;DHT22;17103;48.316;11.558;2023-04-03T15:47:59;17.20;31.60
30288;DHT22;17103;48.316;11.558;2023-04-03T15:50:25;17.50;31.60
30288;DHT22;17103;48.316;11.558;2023-04-03T15:52:51;17.80;31.50
30288;DHT22;17103;48.316;11.558;2023-04-03T15:55:24;18.00;31.30
30288;DHT22;17103;48.316;11.558;2023-04-03T15:57:50;18.30;31.00
30288;DHT22;17103;48.316;11.558;2023-04-03T16:00:17;18.50;30.90
30288;DHT22;17103;48.316;11.558;2023-04-03T16:02:44;18.80;30.50
30288;DHT22;17103;48.316;11.558;2023-04-03T16:05:11;19.00;30.20
30288;DHT22;17103;48.316;11.558;2023-04-03T16:07:38;19.20;30.00
30288;DHT22;17103;48.316;11.558;2023-04-03T16:10:07;19.50;30.00
30288;DHT22;17103;48.316;11.558;2023-04-03T16:12:33;19.70;29.80
30288;DHT22;17103;48.316;11.558;2023-04-03T16:14:58;19.90;30.40
30288;DHT22;17103;48.316;11.558;2023-04-03T16:17:26;20.10;29.90
30288;DHT22;17103;48.316;11.558;2023-04-03T16:19:53;20.40;29.60
30288;DHT22;17103;48.316;11.558;2023-04-03T16:22:19;20.50;29.70
30288;DHT22;17103;48.316;11.558;2023-04-03T16:24:45;20.70;29.20
30288;DHT22;17103;48.316;11.558;2023-04-03T16:27:11;20.90;28.90
30288;DHT22;17103;48.316;11.558;2023-04-03T16:29:37;21.10;29.00
30288;DHT22;17103;48.316;11.558;2023-04-03T16:32:04;21.20;28.60
30288;DHT22;17103;48.316;11.558;2023-04-03T16:34:30;21.30;28.00
30288;DHT22;17103;48.316;11.558;2023-04-03T16:36:57;21.40;28.10
30288;DHT22;17103;48.316;11.558;2023-04-03T16:39:23;21.50;28.10
30288;DHT22;17103;48.316;11.558;2023-04-03T16:41:48;21.60;28.00
30288;DHT22;17103;48.316;11.558;2023-04-03T16:44:14;21.60;28.10
30288;DHT22;17103;48.316;11.558;2023-04-03T16:46:40;21.70;27.60
30288;DHT22;17103;48.316;11.558;2023-04-03T16:49:06;21.80;27.60
30288;DHT22;17103;48.316;11.558;2023-04-03T16:51:33;21.80;27.20
30288;DHT22;17103;48.316;11.558;2023-04-03T16:53:58;21.80;26.90
30288;DHT22;17103;48.316;11.558;2023-04-03T16:56:24;21.80;27.10
30288;DHT22;17103;48.316;11.558;2023-04-03T16:58:52;21.80;26.50
30288;DHT22;17103;48.316;11.558;2023-04-03T17:01:20;21.60;26.80
30288;DHT22;17103;48.316;11.558;2023-04-03T17:03:47;21.70;26.60
30288;DHT22;17103;48.316;11.558;2023-04-03T17:06:16;21.60;26.10
30288;DHT22;17103;48.316;11.558;2023-04-03T17:08:43;21.60;26.10
30288;DHT22;17103;48.316;11.558;2023-04-03T17:11:09;21.60;26.10
30288;DHT22;17103;48.316;11.558;2023-04-03T17:13:35;21.60;25.90
30288;DHT22;17103;48.316;11.558;2023-04-03T17:16:02;21.40;25.90
30288;DHT22;17103;48.316;11.558;2023-04-03T17:18:30;21.40;25.60
30288;DHT22;17103;48.316;11.558;2023-04-03T17:20:57;21.30;25.60